sensor_id;sensor_type;location;lat;lon;timestamp;P1;durP1;ratioP1;P2;durP2;ratioP2
47481;SDS011;33219;47.410;9.730;2023-04-07T00:01:06;6.03;;;3.92;;
47481;SDS011;33219;47.410;9.730;2023-04-07T00:03:34;5.58;;;3.42;;
47481;SDS011;33219;47.410;9.730;2023-04-07T00:06:03;5.72;;;3.42;;
47481;SDS011;33219;47.410;9.730;2023-04-07T00:08:31;6.45;;;3.60;;
47481;SDS011;33219;47.410;9.730;2023-04-07T00:10:58;5.25;;;3.35;;
47481;SDS011;33219;47.410;9.730;2023-04-07T00:13:26;4.83;;;3.20;;
47481;SDS011;33219;47.410;9.730;2023-04-07T00:15:54;7.45;;;3.45;;
47481;SDS011;33219;47.410;9.730;2023-04-07T00:18:21;5.25;;;3.30;;
47481;SDS011;33219;47.410;9.730;2023-04-07T00:20:49;6.25;;;3.45;;
47481;SDS011;33219;47.410;9.730;2023-04-07T00:23:16;7.03;;;3.62;;
47481;SDS011;33219;47.410;9.730;2023-04-07T00:25:46;5.72;;;3.27;;
47481;SDS011;33219;47.410;9.730;2023-04-07T00:28:14;6.00;;;3.22;;
47481;SDS011;33219;47.410;9.730;2023-04-07T00:30:42;5.78;;;3.40;;
47481;SDS011;33219;47.410;9.730;2023-04-07T00:33:09;4.78;;;3.22;;
47481;SDS011;33219;47.410;9.730;2023-04-07T00:35:37;5.90;;;3.27;;
47481;SDS011;33219;47.410;9.730;2023-04-07T00:38:04;4.83;;;3.17;;
47481;SDS011;33219;47.410;9.730;2023-04-07T00:40:32;7.05;;;3.58;;
47481;SDS011;33219;47.410;9.730;2023-04-07T00:43:00;4.62;;;3.22;;
47481;SDS011;33219;47.410;9.730;2023-04-07T00:45:27;4.47;;;3.22;;
47481;SDS011;33219;47.410;9.730;2023-04-07T00:47:56;4.65;;;3.25;;
47481;SDS011;33219;47.410;9.730;2023-04-07T00:50:24;4.83;;;3.20;;
47481;SDS011;33219;47.410;9.730;2023-04-07T00:52:52;4.83;;;3.02;;
47481;SDS011;33219;47.410;9.730;2023-04-07T00:55:21;4.92;;;3.00;;
47481;SDS011;33219;47.410;9.730;2023-04-07T00:57:49;4.83;;;2.80;;
47481;SDS011;33219;47.410;9.730;2023-04-07T01:00:17;5.05;;;3.00;;
47481;SDS011;33219;47.410;9.730;2023-04-07T01:02:57;5.42;;;3.00;;
47481;SDS011;33219;47.410;9.730;2023-04-07T01:05:49;4.97;;;3.15;;
47481;SDS011;33219;47.410;9.730;2023-04-07T01:10:55;4.20;;;2.70;;
47481;SDS011;33219;47.410;9.730;2023-04-07T01:14:08;4.33;;;2.70;;
47481;SDS011;33219;47.410;9.730;2023-04-07T01:16:00;6.17;;;3.05;;
47481;SDS011;33219;47.410;9.730;2023-04-07T01:18:34;5.37;;;3.35;;
47481;SDS011;33219;47.410;9.730;2023-04-07T01:21:05;5.80;;;3.20;;
47481;SDS011;33219;47.410;9.730;2023-04-07T01:29:10;4.90;;;3.40;;
47481;SDS011;33219;47.410;9.730;2023-04-07T01:31:53;5.67;;;3.55;;
47481;SDS011;33219;47.410;9.730;2023-04-07T01:34:22;7.20;;;3.70;;
47481;SDS011;33219;47.410;9.730;2023-04-07T01:36:53;5.60;;;3.02;;
47481;SDS011;33219;47.410;9.730;2023-04-07T01:39:21;5.67;;;3.50;;
47481;SDS011;33219;47.410;9.730;2023-04-07T01:41:50;5.40;;;3.08;;
47481;SDS011;33219;47.410;9.730;2023-04-07T01:44:18;4.12;;;2.75;;
47481;SDS011;33219;47.410;9.730;2023-04-07T01:46:47;5.08;;;3.02;;
47481;SDS011;33219;47.410;9.730;2023-04-07T01:49:16;4.65;;;2.87;;
47481;SDS011;33219;47.410;9.730;2023-04-07T01:51:45;5.85;;;3.02;;
47481;SDS011;33219;47.410;9.730;2023-04-07T01:54:15;3.87;;;2.60;;
47481;SDS011;33219;47.410;9.730;2023-04-07T01:56:43;4.65;;;2.90;;
47481;SDS011;33219;47.410;9.730;2023-04-07T01:59:11;4.53;;;2.62;;
47481;SDS011;33219;47.410;9.730;2023-04-07T02:01:39;4.62;;;2.95;;
47481;SDS011;33219;47.410;9.730;2023-04-07T02:06:51;5.05;;;2.67;;
47481;SDS011;33219;47.410;9.730;2023-04-07T02:09:20;3.47;;;2.60;;
47481;SDS011;33219;47.410;9.730;2023-04-07T02:11:49;4.22;;;2.85;;
47481;SDS011;33219;47.410;9.730;2023-04-07T02:14:20;4.45;;;2.98;;
47481;SDS011;33219;47.410;9.730;2023-04-07T02:16:49;6.47;;;2.80;;
47481;SDS011;33219;47.410;9.730;2023-04-07T02:19:18;3.40;;;2.33;;
47481;SDS011;33219;47.410;9.730;2023-04-07T02:21:47;4.00;;;2.75;;
47481;SDS011;33219;47.410;9.730;2023-04-07T02:24:21;3.98;;;2.58;;
47481;SDS011;33219;47.410;9.730;2023-04-07T02:26:48;3.95;;;2.85;;
47481;SDS011;33219;47.410;9.730;2023-04-07T02:29:15;4.53;;;2.70;;
47481;SDS011;33219;47.410;9.730;2023-04-07T02:31:43;5.17;;;2.70;;
47481;SDS011;33219;47.410;9.730;2023-04-07T02:34:11;4.53;;;2.87;;
47481;SDS011;33219;47.410;9.730;2023-04-07T02:36:38;4.65;;;2.60;;
47481;SDS011;33219;47.410;9.730;2023-04-07T02:39:06;4.92;;;2.60;;
47481;SDS011;33219;47.410;9.730;2023-04-07T02:41:35;4.17;;;2.87;;
47481;SDS011;33219;47.410;9.730;2023-04-07T02:44:02;4.73;;;2.90;;
47481;SDS011;33219;47.410;9.730;2023-04-07T02:46:30;3.85;;;2.80;;
47481;SDS011;33219;47.410;9.730;2023-04-07T02:48:58;4.65;;;3.40;;
47481;SDS011;33219;47.410;9.730;2023-04-07T02:51:26;6.33;;;3.47;;
47481;SDS011;33219;47.410;9.730;2023-04-07T02:53:53;6.25;;;3.50;;
47481;SDS011;33219;47.410;9.730;2023-04-07T02:56:21;5.28;;;3.47;;
47481;SDS011;33219;47.410;9.730;2023-04-07T02:58:49;6.62;;;3.72;;
47481;SDS011;33219;47.410;9.730;2023-04-07T03:01:16;5.53;;;3.47;;
47481;SDS011;33219;47.410;9.730;2023-04-07T03:03:44;6.45;;;3.87;;
47481;SDS011;33219;47.410;9.730;2023-04-07T03:06:12;5.70;;;3.65;;
47481;SDS011;33219;47.410;9.730;2023-04-07T03:08:40;6.30;;;3.92;;
47481;SDS011;33219;47.410;9.730;2023-04-07T03:11:08;7.17;;;3.70;;
47481;SDS011;33219;47.410;9.730;2023-04-07T03:13:36;5.85;;;4.08;;
47481;SDS011;33219;47.410;9.730;2023-04-07T03:16:03;5.60;;;3.75;;
47481;SDS011;33219;47.410;9.730;2023-04-07T03:18:31;7.28;;;4.33;;
47481;SDS011;33219;47.410;9.730;2023-04-07T03:20:59;6.80;;;4.05;;
47481;SDS011;33219;47.410;9.730;2023-04-07T03:23:26;6.67;;;4.08;;
47481;SDS011;33219;47.410;9.730;2023-04-07T03:25:54;7.37;;;4.47;;
47481;SDS011;33219;47.410;9.730;2023-04-07T03:28:22;4.75;;;3.60;;
47481;SDS011;33219;47.410;9.730;2023-04-07T03:30:50;6.45;;;3.20;;
47481;SDS011;33219;47.410;9.730;2023-04-07T03:33:18;4.72;;;3.47;;
47481;SDS011;33219;47.410;9.730;2023-04-07T03:35:45;5.78;;;3.70;;
47481;SDS011;33219;47.410;9.730;2023-04-07T03:38:13;5.20;;;3.30;;
47481;SDS011;33219;47.410;9.730;2023-04-07T03:40:40;7.22;;;3.47;;
47481;SDS011;33219;47.410;9.730;2023-04-07T03:43:08;5.28;;;3.65;;
47481;SDS011;33219;47.410;9.730;2023-04-07T03:45:37;5.62;;;3.50;;
47481;SDS011;33219;47.410;9.730;2023-04-07T03:48:06;8.75;;;3.90;;
47481;SDS011;33219;47.410;9.730;2023-04-07T03:50:39;3.80;;;2.67;;
47481;SDS011;33219;47.410;9.730;2023-04-07T03:53:07;4.47;;;2.70;;
47481;SDS011;33219;47.410;9.730;2023-04-07T03:55:35;4.08;;;2.60;;
47481;SDS011;33219;47.410;9.730;2023-04-07T03:58:03;4.97;;;2.90;;
47481;SDS011;33219;47.410;9.730;2023-04-07T04:00:31;4.40;;;2.85;;
47481;SDS011;33219;47.410;9.730;2023-04-07T04:02:58;3.87;;;2.62;;
47481;SDS011;33219;47.410;9.730;2023-04-07T04:05:26;5.67;;;2.72;;
47481;SDS011;33219;47.410;9.730;2023-04-07T04:07:54;4.45;;;2.87;;
47481;SDS011;33219;47.410;9.730;2023-04-07T04:10:21;4.72;;;2.75;;
47481;SDS011;33219;47.410;9.730;2023-04-07T04:12:49;3.62;;;2.50;;
47481;SDS011;33219;47.410;9.730;2023-04-07T04:15:17;4.85;;;2.45;;
47481;SDS011;33219;47.410;9.730;2023-04-07T04:17:44;4.65;;;2.33;;
47481;SDS011;33219;47.410;9.730;2023-04-07T04:20:12;3.77;;;2.52;;
47481;SDS011;33219;47.410;9.730;2023-04-07T04:22:40;5.60;;;2.70;;
47481;SDS011;33219;47.410;9.730;2023-04-07T04:25:07;4.78;;;2.72;;
47481;SDS011;33219;47.410;9.730;2023-04-07T04:27:35;5.50;;;2.62;;
47481;SDS011;33219;47.410;9.730;2023-04-07T04:30:03;5.20;;;2.47;;
47481;SDS011;33219;47.410;9.730;2023-04-07T04:32:31;5.03;;;2.70;;
47481;SDS011;33219;47.410;9.730;2023-04-07T04:34:59;4.30;;;2.65;;
47481;SDS011;33219;47.410;9.730;2023-04-07T04:37:26;3.87;;;2.30;;
47481;SDS011;33219;47.410;9.730;2023-04-07T04:39:54;4.85;;;2.72;;
47481;SDS011;33219;47.410;9.730;2023-04-07T04:42:21;5.10;;;3.05;;
47481;SDS011;33219;47.410;9.730;2023-04-07T04:44:51;4.95;;;2.80;;
47481;SDS011;33219;47.410;9.730;2023-04-07T04:47:18;10.78;;;4.12;;
47481;SDS011;33219;47.410;9.730;2023-04-07T04:49:46;10.68;;;4.78;;
47481;SDS011;33219;47.410;9.730;2023-04-07T04:52:13;23.32;;;4.03;;
47481;SDS011;33219;47.410;9.730;2023-04-07T04:54:41;33.23;;;4.55;;
47481;SDS011;33219;47.410;9.730;2023-04-07T04:57:08;13.65;;;4.05;;
47481;SDS011;33219;47.410;9.730;2023-04-07T04:59:36;7.37;;;3.50;;
47481;SDS011;33219;47.410;9.730;2023-04-07T05:02:04;6.80;;;3.12;;
47481;SDS011;33219;47.410;9.730;2023-04-07T05:04:32;7.65;;;3.20;;
47481;SDS011;33219;47.410;9.730;2023-04-07T05:06:59;9.45;;;3.10;;
47481;SDS011;33219;47.410;9.730;2023-04-07T05:09:27;4.97;;;2.80;;
47481;SDS011;33219;47.410;9.730;2023-04-07T05:11:55;6.45;;;3.50;;
47481;SDS011;33219;47.410;9.730;2023-04-07T05:14:22;4.70;;;3.10;;
47481;SDS011;33219;47.410;9.730;2023-04-07T05:16:50;5.78;;;3.27;;
47481;SDS011;33219;47.410;9.730;2023-04-07T05:19:19;6.55;;;3.02;;
47481;SDS011;33219;47.410;9.730;2023-04-07T05:21:46;6.00;;;3.60;;
47481;SDS011;33219;47.410;9.730;2023-04-07T05:24:14;8.28;;;3.40;;
47481;SDS011;33219;47.410;9.730;2023-04-07T05:26:41;5.10;;;3.47;;
47481;SDS011;33219;47.410;9.730;2023-04-07T05:29:09;8.60;;;3.83;;
47481;SDS011;33219;47.410;9.730;2023-04-07T05:31:36;8.53;;;3.90;;
47481;SDS011;33219;47.410;9.730;2023-04-07T05:34:05;6.33;;;3.52;;
47481;SDS011;33219;47.410;9.730;2023-04-07T05:36:34;6.97;;;3.65;;
47481;SDS011;33219;47.410;9.730;2023-04-07T05:39:01;5.75;;;3.17;;
47481;SDS011;33219;47.410;9.730;2023-04-07T05:41:29;6.20;;;2.90;;
47481;SDS011;33219;47.410;9.730;2023-04-07T05:43:56;5.75;;;3.52;;
47481;SDS011;33219;47.410;9.730;2023-04-07T05:46:24;6.80;;;3.05;;
47481;SDS011;33219;47.410;9.730;2023-04-07T05:48:51;5.67;;;2.80;;
47481;SDS011;33219;47.410;9.730;2023-04-07T05:51:19;4.67;;;2.65;;
47481;SDS011;33219;47.410;9.730;2023-04-07T05:53:46;5.65;;;2.83;;
47481;SDS011;33219;47.410;9.730;2023-04-07T05:56:14;4.37;;;2.90;;
47481;SDS011;33219;47.410;9.730;2023-04-07T05:58:41;4.83;;;3.67;;
47481;SDS011;33219;47.410;9.730;2023-04-07T06:01:09;5.95;;;3.27;;
47481;SDS011;33219;47.410;9.730;2023-04-07T06:03:37;5.10;;;3.25;;
47481;SDS011;33219;47.410;9.730;2023-04-07T06:06:05;6.90;;;3.50;;
47481;SDS011;33219;47.410;9.730;2023-04-07T06:08:33;5.92;;;3.70;;
47481;SDS011;33219;47.410;9.730;2023-04-07T06:11:01;7.10;;;4.08;;
47481;SDS011;33219;47.410;9.730;2023-04-07T06:13:28;6.30;;;3.70;;
47481;SDS011;33219;47.410;9.730;2023-04-07T06:15:56;5.30;;;3.20;;
47481;SDS011;33219;47.410;9.730;2023-04-07T06:18:23;8.45;;;3.00;;
47481;SDS011;33219;47.410;9.730;2023-04-07T06:20:56;4.95;;;2.90;;
47481;SDS011;33219;47.410;9.730;2023-04-07T06:23:24;5.75;;;2.98;;
47481;SDS011;33219;47.410;9.730;2023-04-07T06:25:51;4.85;;;2.95;;
47481;SDS011;33219;47.410;9.730;2023-04-07T06:28:19;5.37;;;3.00;;
47481;SDS011;33219;47.410;9.730;2023-04-07T06:30:47;9.70;;;4.72;;
47481;SDS011;33219;47.410;9.730;2023-04-07T06:33:14;31.85;;;16.20;;
47481;SDS011;33219;47.410;9.730;2023-04-07T06:35:42;29.98;;;14.30;;
47481;SDS011;33219;47.410;9.730;2023-04-07T06:38:09;25.57;;;11.93;;
47481;SDS011;33219;47.410;9.730;2023-04-07T06:40:37;14.45;;;7.65;;
47481;SDS011;33219;47.410;9.730;2023-04-07T06:43:05;13.75;;;7.80;;
47481;SDS011;33219;47.410;9.730;2023-04-07T06:45:32;11.97;;;7.08;;
47481;SDS011;33219;47.410;9.730;2023-04-07T06:48:00;15.45;;;7.53;;
47481;SDS011;33219;47.410;9.730;2023-04-07T06:50:27;13.30;;;7.67;;
47481;SDS011;33219;47.410;9.730;2023-04-07T06:52:55;14.98;;;8.03;;
47481;SDS011;33219;47.410;9.730;2023-04-07T06:55:23;12.93;;;7.53;;
47481;SDS011;33219;47.410;9.730;2023-04-07T06:57:52;14.93;;;7.80;;
47481;SDS011;33219;47.410;9.730;2023-04-07T07:00:19;16.45;;;8.00;;
47481;SDS011;33219;47.410;9.730;2023-04-07T07:02:48;17.60;;;8.15;;
47481;SDS011;33219;47.410;9.730;2023-04-07T07:05:15;15.85;;;7.95;;
47481;SDS011;33219;47.410;9.730;2023-04-07T07:07:43;13.25;;;7.72;;
47481;SDS011;33219;47.410;9.730;2023-04-07T07:10:11;11.22;;;6.70;;
47481;SDS011;33219;47.410;9.730;2023-04-07T07:12:38;12.63;;;6.15;;
47481;SDS011;33219;47.410;9.730;2023-04-07T07:15:06;5.95;;;5.08;;
47481;SDS011;33219;47.410;9.730;2023-04-07T07:17:34;8.75;;;4.80;;
47481;SDS011;33219;47.410;9.730;2023-04-07T07:20:01;23.73;;;6.87;;
47481;SDS011;33219;47.410;9.730;2023-04-07T07:22:29;13.10;;;5.47;;
47481;SDS011;33219;47.410;9.730;2023-04-07T07:24:57;12.37;;;6.10;;
47481;SDS011;33219;47.410;9.730;2023-04-07T07:27:24;8.95;;;5.70;;
47481;SDS011;33219;47.410;9.730;2023-04-07T07:29:52;9.58;;;5.55;;
47481;SDS011;33219;47.410;9.730;2023-04-07T07:32:19;7.65;;;5.28;;
47481;SDS011;33219;47.410;9.730;2023-04-07T07:34:47;9.70;;;5.67;;
47481;SDS011;33219;47.410;9.730;2023-04-07T07:37:15;13.10;;;6.00;;
47481;SDS011;33219;47.410;9.730;2023-04-07T07:39:42;15.68;;;6.97;;
47481;SDS011;33219;47.410;9.730;2023-04-07T07:42:10;11.50;;;6.70;;
47481;SDS011;33219;47.410;9.730;2023-04-07T07:44:37;11.40;;;6.00;;
47481;SDS011;33219;47.410;9.730;2023-04-07T07:47:05;11.88;;;6.25;;
47481;SDS011;33219;47.410;9.730;2023-04-07T07:49:33;9.40;;;5.55;;
47481;SDS011;33219;47.410;9.730;2023-04-07T07:52:01;9.33;;;5.03;;
47481;SDS011;33219;47.410;9.730;2023-04-07T07:54:28;7.08;;;4.85;;
47481;SDS011;33219;47.410;9.730;2023-04-07T07:56:56;9.68;;;5.35;;
47481;SDS011;33219;47.410;9.730;2023-04-07T07:59:23;8.35;;;4.78;;
47481;SDS011;33219;47.410;9.730;2023-04-07T08:01:52;6.67;;;4.53;;
47481;SDS011;33219;47.410;9.730;2023-04-07T08:04:20;6.95;;;4.47;;
47481;SDS011;33219;47.410;9.730;2023-04-07T08:06:49;8.08;;;4.50;;
47481;SDS011;33219;47.410;9.730;2023-04-07T08:09:19;7.53;;;5.03;;
47481;SDS011;33219;47.410;9.730;2023-04-07T08:11:47;5.83;;;4.47;;
47481;SDS011;33219;47.410;9.730;2023-04-07T08:14:14;8.38;;;4.90;;
47481;SDS011;33219;47.410;9.730;2023-04-07T08:16:42;7.10;;;4.83;;
47481;SDS011;33219;47.410;9.730;2023-04-07T08:19:10;6.15;;;4.45;;
47481;SDS011;33219;47.410;9.730;2023-04-07T08:21:38;7.60;;;4.58;;
47481;SDS011;33219;47.410;9.730;2023-04-07T08:24:06;7.00;;;4.35;;
47481;SDS011;33219;47.410;9.730;2023-04-07T08:26:34;6.30;;;4.47;;
47481;SDS011;33219;47.410;9.730;2023-04-07T08:29:02;6.78;;;4.80;;
47481;SDS011;33219;47.410;9.730;2023-04-07T08:31:29;7.12;;;4.80;;
47481;SDS011;33219;47.410;9.730;2023-04-07T08:33:57;6.55;;;4.40;;
47481;SDS011;33219;47.410;9.730;2023-04-07T08:36:25;6.28;;;4.47;;
47481;SDS011;33219;47.410;9.730;2023-04-07T08:38:53;7.20;;;5.00;;
47481;SDS011;33219;47.410;9.730;2023-04-07T08:41:37;6.40;;;4.40;;
47481;SDS011;33219;47.410;9.730;2023-04-07T08:44:06;8.43;;;4.72;;
47481;SDS011;33219;47.410;9.730;2023-04-07T08:46:38;6.60;;;4.72;;
47481;SDS011;33219;47.410;9.730;2023-04-07T08:49:07;6.53;;;4.50;;
47481;SDS011;33219;47.410;9.730;2023-04-07T08:51:39;8.05;;;4.58;;
47481;SDS011;33219;47.410;9.730;2023-04-07T08:54:13;6.85;;;5.08;;
47481;SDS011;33219;47.410;9.730;2023-04-07T08:56:43;7.12;;;4.37;;
47481;SDS011;33219;47.410;9.730;2023-04-07T08:59:12;6.50;;;4.42;;
47481;SDS011;33219;47.410;9.730;2023-04-07T09:01:42;5.35;;;3.90;;
47481;SDS011;33219;47.410;9.730;2023-04-07T09:04:11;4.67;;;3.98;;
47481;SDS011;33219;47.410;9.730;2023-04-07T09:06:39;5.22;;;4.42;;
47481;SDS011;33219;47.410;9.730;2023-04-07T09:09:07;5.40;;;4.20;;
47481;SDS011;33219;47.410;9.730;2023-04-07T09:11:36;6.53;;;4.92;;
47481;SDS011;33219;47.410;9.730;2023-04-07T09:14:05;5.50;;;4.40;;
47481;SDS011;33219;47.410;9.730;2023-04-07T09:16:33;8.68;;;4.67;;
47481;SDS011;33219;47.410;9.730;2023-04-07T09:19:01;5.78;;;4.80;;
47481;SDS011;33219;47.410;9.730;2023-04-07T09:21:47;6.33;;;4.22;;
47481;SDS011;33219;47.410;9.730;2023-04-07T09:24:22;6.78;;;4.00;;
47481;SDS011;33219;47.410;9.730;2023-04-07T09:27:07;7.05;;;4.28;;
47481;SDS011;33219;47.410;9.730;2023-04-07T09:29:36;6.87;;;4.37;;
47481;SDS011;33219;47.410;9.730;2023-04-07T09:32:05;5.12;;;4.05;;
47481;SDS011;33219;47.410;9.730;2023-04-07T09:34:33;4.83;;;3.67;;
47481;SDS011;33219;47.410;9.730;2023-04-07T09:37:02;5.35;;;4.50;;
47481;SDS011;33219;47.410;9.730;2023-04-07T09:39:32;6.12;;;4.62;;
47481;SDS011;33219;47.410;9.730;2023-04-07T09:42:01;5.85;;;4.72;;
47481;SDS011;33219;47.410;9.730;2023-04-07T09:44:30;7.85;;;4.78;;
47481;SDS011;33219;47.410;9.730;2023-04-07T09:47:01;5.85;;;4.78;;
47481;SDS011;33219;47.410;9.730;2023-04-07T09:49:28;8.20;;;5.17;;
47481;SDS011;33219;47.410;9.730;2023-04-07T09:52:02;7.42;;;5.15;;
47481;SDS011;33219;47.410;9.730;2023-04-07T09:54:33;8.40;;;5.33;;
47481;SDS011;33219;47.410;9.730;2023-04-07T09:57:03;8.63;;;5.30;;
47481;SDS011;33219;47.410;9.730;2023-04-07T09:59:33;6.17;;;5.20;;
47481;SDS011;33219;47.410;9.730;2023-04-07T10:02:02;6.47;;;5.12;;
47481;SDS011;33219;47.410;9.730;2023-04-07T10:04:31;6.65;;;5.47;;
47481;SDS011;33219;47.410;9.730;2023-04-07T10:06:59;8.30;;;5.15;;
47481;SDS011;33219;47.410;9.730;2023-04-07T10:09:28;7.58;;;5.87;;
47481;SDS011;33219;47.410;9.730;2023-04-07T10:11:56;6.40;;;5.50;;
47481;SDS011;33219;47.410;9.730;2023-04-07T10:14:25;7.45;;;5.20;;
47481;SDS011;33219;47.410;9.730;2023-04-07T10:16:54;9.00;;;5.70;;
47481;SDS011;33219;47.410;9.730;2023-04-07T10:19:24;7.10;;;6.05;;
47481;SDS011;33219;47.410;9.730;2023-04-07T10:21:54;6.83;;;5.60;;
47481;SDS011;33219;47.410;9.730;2023-04-07T10:27:19;6.55;;;5.53;;
47481;SDS011;33219;47.410;9.730;2023-04-07T10:29:47;8.93;;;6.00;;
47481;SDS011;33219;47.410;9.730;2023-04-07T10:32:17;7.12;;;5.20;;
47481;SDS011;33219;47.410;9.730;2023-04-07T10:37:23;7.17;;;4.90;;
47481;SDS011;33219;47.410;9.730;2023-04-07T10:39:52;7.35;;;4.40;;
47481;SDS011;33219;47.410;9.730;2023-04-07T10:45:09;5.42;;;4.08;;
47481;SDS011;33219;47.410;9.730;2023-04-07T10:50:25;5.42;;;3.90;;
47481;SDS011;33219;47.410;9.730;2023-04-07T10:53:04;5.12;;;3.85;;
47481;SDS011;33219;47.410;9.730;2023-04-07T10:55:39;5.12;;;3.50;;
47481;SDS011;33219;47.410;9.730;2023-04-07T10:58:32;5.85;;;3.15;;
47481;SDS011;33219;47.410;9.730;2023-04-07T11:03:38;5.25;;;3.35;;
47481;SDS011;33219;47.410;9.730;2023-04-07T11:06:07;5.55;;;3.77;;
47481;SDS011;33219;47.410;9.730;2023-04-07T11:08:39;7.37;;;3.62;;
47481;SDS011;33219;47.410;9.730;2023-04-07T11:11:10;5.28;;;3.10;;
47481;SDS011;33219;47.410;9.730;2023-04-07T11:13:45;5.62;;;3.50;;
47481;SDS011;33219;47.410;9.730;2023-04-07T11:16:14;5.17;;;3.40;;
47481;SDS011;33219;47.410;9.730;2023-04-07T11:18:43;4.95;;;3.60;;
47481;SDS011;33219;47.410;9.730;2023-04-07T11:21:16;5.00;;;3.30;;
47481;SDS011;33219;47.410;9.730;2023-04-07T11:23:45;6.58;;;3.70;;
47481;SDS011;33219;47.410;9.730;2023-04-07T11:26:14;4.83;;;3.40;;
47481;SDS011;33219;47.410;9.730;2023-04-07T11:28:46;6.25;;;3.67;;
47481;SDS011;33219;47.410;9.730;2023-04-07T11:31:23;6.20;;;3.50;;
47481;SDS011;33219;47.410;9.730;2023-04-07T11:33:53;6.55;;;3.50;;
47481;SDS011;33219;47.410;9.730;2023-04-07T11:36:33;6.17;;;3.60;;
47481;SDS011;33219;47.410;9.730;2023-04-07T11:39:03;6.17;;;3.70;;
47481;SDS011;33219;47.410;9.730;2023-04-07T11:41:31;6.33;;;3.72;;
47481;SDS011;33219;47.410;9.730;2023-04-07T11:46:34;5.22;;;4.05;;
47481;SDS011;33219;47.410;9.730;2023-04-07T11:49:12;5.17;;;3.40;;
47481;SDS011;33219;47.410;9.730;2023-04-07T11:51:42;5.80;;;3.70;;
47481;SDS011;33219;47.410;9.730;2023-04-07T11:54:10;5.33;;;3.92;;
47481;SDS011;33219;47.410;9.730;2023-04-07T11:56:42;5.40;;;3.95;;
47481;SDS011;33219;47.410;9.730;2023-04-07T11:59:18;6.00;;;3.62;;
47481;SDS011;33219;47.410;9.730;2023-04-07T12:01:48;5.28;;;3.92;;
47481;SDS011;33219;47.410;9.730;2023-04-07T12:04:16;4.70;;;3.65;;
47481;SDS011;33219;47.410;9.730;2023-04-07T12:06:45;5.35;;;3.35;;
47481;SDS011;33219;47.410;9.730;2023-04-07T12:11:57;6.47;;;3.98;;
47481;SDS011;33219;47.410;9.730;2023-04-07T12:14:25;4.58;;;3.35;;
47481;SDS011;33219;47.410;9.730;2023-04-07T12:16:53;5.97;;;3.98;;
47481;SDS011;33219;47.410;9.730;2023-04-07T12:19:23;5.72;;;3.83;;
47481;SDS011;33219;47.410;9.730;2023-04-07T12:21:54;6.60;;;4.25;;
47481;SDS011;33219;47.410;9.730;2023-04-07T12:24:22;5.35;;;4.15;;
47481;SDS011;33219;47.410;9.730;2023-04-07T12:26:49;7.42;;;4.60;;
47481;SDS011;33219;47.410;9.730;2023-04-07T12:29:18;6.20;;;4.53;;
47481;SDS011;33219;47.410;9.730;2023-04-07T12:31:45;6.20;;;4.08;;
47481;SDS011;33219;47.410;9.730;2023-04-07T12:34:13;7.53;;;4.33;;
47481;SDS011;33219;47.410;9.730;2023-04-07T12:36:41;6.45;;;3.80;;
47481;SDS011;33219;47.410;9.730;2023-04-07T12:39:09;5.50;;;4.05;;
47481;SDS011;33219;47.410;9.730;2023-04-07T12:41:39;5.80;;;4.17;;
47481;SDS011;33219;47.410;9.730;2023-04-07T12:44:07;5.72;;;4.15;;
47481;SDS011;33219;47.410;9.730;2023-04-07T12:46:35;5.50;;;3.80;;
47481;SDS011;33219;47.410;9.730;2023-04-07T12:49:02;5.75;;;4.10;;
47481;SDS011;33219;47.410;9.730;2023-04-07T12:51:30;5.78;;;4.17;;
47481;SDS011;33219;47.410;9.730;2023-04-07T12:53:58;5.85;;;3.80;;
47481;SDS011;33219;47.410;9.730;2023-04-07T12:56:26;6.47;;;3.55;;
47481;SDS011;33219;47.410;9.730;2023-04-07T12:58:54;5.62;;;4.03;;
47481;SDS011;33219;47.410;9.730;2023-04-07T13:01:21;6.60;;;4.05;;
47481;SDS011;33219;47.410;9.730;2023-04-07T13:03:49;4.70;;;3.65;;
47481;SDS011;33219;47.410;9.730;2023-04-07T13:06:17;4.90;;;3.98;;
47481;SDS011;33219;47.410;9.730;2023-04-07T13:08:44;6.55;;;4.83;;
47481;SDS011;33219;47.410;9.730;2023-04-07T13:11:12;8.90;;;4.42;;
47481;SDS011;33219;47.410;9.730;2023-04-07T13:13:39;5.30;;;3.92;;
47481;SDS011;33219;47.410;9.730;2023-04-07T13:16:07;6.60;;;3.98;;
47481;SDS011;33219;47.410;9.730;2023-04-07T13:18:35;6.50;;;4.67;;
47481;SDS011;33219;47.410;9.730;2023-04-07T13:21:02;7.10;;;4.12;;
47481;SDS011;33219;47.410;9.730;2023-04-07T13:23:30;7.12;;;3.95;;
47481;SDS011;33219;47.410;9.730;2023-04-07T13:25:58;6.97;;;4.20;;
47481;SDS011;33219;47.410;9.730;2023-04-07T13:28:26;4.72;;;3.90;;
47481;SDS011;33219;47.410;9.730;2023-04-07T13:30:56;6.30;;;3.47;;
47481;SDS011;33219;47.410;9.730;2023-04-07T13:33:24;5.40;;;4.20;;
47481;SDS011;33219;47.410;9.730;2023-04-07T13:35:52;4.92;;;3.80;;
47481;SDS011;33219;47.410;9.730;2023-04-07T13:38:19;5.55;;;4.08;;
47481;SDS011;33219;47.410;9.730;2023-04-07T13:40:47;6.55;;;4.10;;
47481;SDS011;33219;47.410;9.730;2023-04-07T13:43:14;5.53;;;3.90;;
47481;SDS011;33219;47.410;9.730;2023-04-07T13:45:43;6.37;;;3.90;;
47481;SDS011;33219;47.410;9.730;2023-04-07T13:48:11;6.10;;;4.08;;
47481;SDS011;33219;47.410;9.730;2023-04-07T13:50:39;6.80;;;4.28;;
47481;SDS011;33219;47.410;9.730;2023-04-07T13:53:07;7.25;;;4.35;;
47481;SDS011;33219;47.410;9.730;2023-04-07T13:55:34;6.72;;;3.92;;
47481;SDS011;33219;47.410;9.730;2023-04-07T13:58:02;6.35;;;4.25;;
47481;SDS011;33219;47.410;9.730;2023-04-07T14:00:29;6.33;;;4.70;;
47481;SDS011;33219;47.410;9.730;2023-04-07T14:02:57;6.45;;;4.60;;
47481;SDS011;33219;47.410;9.730;2023-04-07T14:05:24;7.85;;;5.53;;
47481;SDS011;33219;47.410;9.730;2023-04-07T14:07:52;5.87;;;4.60;;
47481;SDS011;33219;47.410;9.730;2023-04-07T14:10:19;6.50;;;4.97;;
47481;SDS011;33219;47.410;9.730;2023-04-07T14:12:47;7.12;;;4.87;;
47481;SDS011;33219;47.410;9.730;2023-04-07T14:15:15;7.37;;;5.05;;
47481;SDS011;33219;47.410;9.730;2023-04-07T14:17:43;7.20;;;4.92;;
47481;SDS011;33219;47.410;9.730;2023-04-07T14:20:10;7.45;;;5.40;;
47481;SDS011;33219;47.410;9.730;2023-04-07T14:22:38;9.48;;;5.10;;
47481;SDS011;33219;47.410;9.730;2023-04-07T14:25:06;7.97;;;4.90;;
47481;SDS011;33219;47.410;9.730;2023-04-07T14:27:34;6.90;;;4.90;;
47481;SDS011;33219;47.410;9.730;2023-04-07T14:30:01;5.80;;;4.22;;
47481;SDS011;33219;47.410;9.730;2023-04-07T14:32:29;7.12;;;5.00;;
47481;SDS011;33219;47.410;9.730;2023-04-07T14:34:58;6.35;;;4.40;;
47481;SDS011;33219;47.410;9.730;2023-04-07T14:37:26;6.55;;;4.28;;
47481;SDS011;33219;47.410;9.730;2023-04-07T14:39:54;5.92;;;4.28;;
47481;SDS011;33219;47.410;9.730;2023-04-07T14:42:22;6.45;;;3.92;;
47481;SDS011;33219;47.410;9.730;2023-04-07T14:44:50;5.37;;;3.85;;
47481;SDS011;33219;47.410;9.730;2023-04-07T14:47:18;6.17;;;4.60;;
47481;SDS011;33219;47.410;9.730;2023-04-07T14:49:45;5.55;;;4.45;;
47481;SDS011;33219;47.410;9.730;2023-04-07T14:52:13;6.35;;;4.90;;
47481;SDS011;33219;47.410;9.730;2023-04-07T14:54:41;6.58;;;4.60;;
47481;SDS011;33219;47.410;9.730;2023-04-07T14:57:08;7.05;;;4.42;;
47481;SDS011;33219;47.410;9.730;2023-04-07T14:59:36;6.90;;;4.20;;
47481;SDS011;33219;47.410;9.730;2023-04-07T15:02:04;8.20;;;5.03;;
47481;SDS011;33219;47.410;9.730;2023-04-07T15:04:31;8.10;;;5.35;;
47481;SDS011;33219;47.410;9.730;2023-04-07T15:06:59;6.80;;;4.55;;
47481;SDS011;33219;47.410;9.730;2023-04-07T15:09:27;6.45;;;4.55;;
47481;SDS011;33219;47.410;9.730;2023-04-07T15:11:54;6.65;;;4.35;;
47481;SDS011;33219;47.410;9.730;2023-04-07T15:14:22;5.45;;;4.28;;
47481;SDS011;33219;47.410;9.730;2023-04-07T15:16:49;6.75;;;4.58;;
47481;SDS011;33219;47.410;9.730;2023-04-07T15:19:18;4.97;;;4.10;;
47481;SDS011;33219;47.410;9.730;2023-04-07T15:21:45;6.37;;;4.60;;
47481;SDS011;33219;47.410;9.730;2023-04-07T15:24:13;5.85;;;4.53;;